createdAt,value
2023-11-23T00:00:12.793Z,79.58
2023-11-23T00:01:15.680Z,79.47
2023-11-23T00:02:19.113Z,79.33
2023-11-23T00:03:21.911Z,79.77
2023-11-23T00:04:24.786Z,79.81
2023-11-23T00:05:28.692Z,79.59
2023-11-23T00:06:31.426Z,79.76
2023-11-23T00:07:34.444Z,79.78
2023-11-23T00:08:37.215Z,79.79
2023-11-23T00:09:40.782Z,79.84
2023-11-23T00:10:43.612Z,79.86
2023-11-23T00:11:46.381Z,79.25
2023-11-23T00:12:49.119Z,79.80
2023-11-23T00:13:53.172Z,79.26
2023-11-23T00:14:55.961Z,79.46
2023-11-23T00:15:58.687Z,79.51
2023-11-23T00:17:01.496Z,79.37
2023-11-23T00:18:04.700Z,79.48
2023-11-23T00:19:07.481Z,79.55
2023-11-23T00:20:11.653Z,79.22
2023-11-23T00:21:14.435Z,79.57
2023-11-23T00:22:17.799Z,79.50
2023-11-23T00:23:20.574Z,79.51
2023-11-23T00:24:23.332Z,79.42
2023-11-23T00:25:26.136Z,79.36
2023-11-23T00:26:28.864Z,79.25
2023-11-23T00:27:35.558Z,79.19
2023-11-23T00:28:38.372Z,79.29
2023-11-23T00:29:41.103Z,79.52
2023-11-23T00:30:43.894Z,79.42
2023-11-23T00:31:46.684Z,79.48
2023-11-23T00:32:49.493Z,79.29
2023-11-23T00:33:52.370Z,79.08
2023-11-23T00:34:55.219Z,79.28
2023-11-23T00:35:58.028Z,79.08
2023-11-23T00:37:00.816Z,78.73
2023-11-23T00:38:04.845Z,78.80
2023-11-23T00:39:10.749Z,78.73
2023-11-23T00:40:16.388Z,78.96
2023-11-23T00:41:19.165Z,78.81
2023-11-23T00:42:21.910Z,79.18
2023-11-23T00:43:25.689Z,79.24
2023-11-23T00:44:28.466Z,79.05
2023-11-23T00:45:31.417Z,79.13
2023-11-23T00:46:36.848Z,79.04
2023-11-23T00:47:39.738Z,79.28
2023-11-23T00:48:42.652Z,78.98
2023-11-23T00:49:46.133Z,79.65
2023-11-23T00:50:48.999Z,79.14
2023-11-23T00:51:51.757Z,79.46
2023-11-23T00:52:54.506Z,79.46
2023-11-23T00:53:57.573Z,79.13
2023-11-23T00:55:00.494Z,79.05
2023-11-23T00:56:04.487Z,79.13
2023-11-23T00:57:07.997Z,79.00
2023-11-23T00:58:10.784Z,79.04
2023-11-23T00:59:13.511Z,79.04
2023-11-23T01:00:19.559Z,79.26
2023-11-23T01:01:22.456Z,79.10
2023-11-23T01:02:25.392Z,79.34
2023-11-23T01:03:28.747Z,78.83
2023-11-23T01:04:31.555Z,78.92
2023-11-23T01:05:35.755Z,79.08
2023-11-23T01:06:38.489Z,78.98
2023-11-23T01:07:41.237Z,78.73
2023-11-23T01:08:45.170Z,78.92
2023-11-23T01:09:47.921Z,79.11
2023-11-23T01:10:50.693Z,79.07
2023-11-23T01:11:53.474Z,78.79
2023-11-23T01:12:56.238Z,79.13
2023-11-23T01:13:59.272Z,78.86
2023-11-23T01:15:03.371Z,79.06
2023-11-23T01:16:06.327Z,79.07
2023-11-23T01:17:09.059Z,79.03
2023-11-23T01:18:11.825Z,78.77
2023-11-23T01:19:14.655Z,78.77
2023-11-23T01:20:17.385Z,79.06
2023-11-23T01:21:20.125Z,78.88
2023-11-23T01:22:22.861Z,78.68
2023-11-23T01:23:27.052Z,78.75
2023-11-23T01:24:29.797Z,78.77
2023-11-23T01:25:32.817Z,78.81
2023-11-23T01:26:35.758Z,78.41
2023-11-23T01:27:39.106Z,78.56
2023-11-23T01:28:41.994Z,78.55
2023-11-23T01:29:44.785Z,78.67
2023-11-23T01:30:47.761Z,78.89
2023-11-23T01:31:50.515Z,78.29
2023-11-23T01:32:54.223Z,78.66
2023-11-23T01:33:57.334Z,78.28
2023-11-23T01:35:00.273Z,78.37
2023-11-23T01:36:03.208Z,78.38
2023-11-23T01:37:05.991Z,77.86
2023-11-23T01:38:08.750Z,78.51
2023-11-23T01:39:12.900Z,78.61
2023-11-23T01:40:16.653Z,78.54
2023-11-23T01:41:19.396Z,78.58
2023-11-23T01:42:22.156Z,78.50
2023-11-23T01:43:24.928Z,78.21
2023-11-23T01:44:28.226Z,78.63
2023-11-23T01:45:30.992Z,79.04
2023-11-23T01:46:33.933Z,79.25
2023-11-23T01:47:41.028Z,79.25
2023-11-23T01:48:45.145Z,79.11
2023-11-23T01:49:50.328Z,79.28
2023-11-23T01:50:55.048Z,79.15
2023-11-23T01:51:57.899Z,79.22
2023-11-23T01:53:02.052Z,79.28
2023-11-23T01:54:04.974Z,79.59
2023-11-23T01:55:08.518Z,79.46
2023-11-23T01:56:13.052Z,79.51
2023-11-23T01:57:17.153Z,79.49
2023-11-23T01:58:21.710Z,79.14
2023-11-23T01:59:25.222Z,79.25
2023-11-23T02:00:28.790Z,79.54
2023-11-23T02:01:31.863Z,79.41
2023-11-23T02:02:34.673Z,79.38
2023-11-23T02:03:40.222Z,79.45
2023-11-23T02:04:43.018Z,79.93
2023-11-23T02:05:45.973Z,79.52
2023-11-23T02:06:48.730Z,79.54
2023-11-23T02:07:51.498Z,79.67
2023-11-23T02:08:54.497Z,80.04
2023-11-23T02:09:57.334Z,79.65
2023-11-23T02:11:01.542Z,79.15
2023-11-23T02:12:07.614Z,79.25
2023-11-23T02:13:10.517Z,79.67
2023-11-23T02:14:13.544Z,79.24
2023-11-23T02:15:16.330Z,79.00
2023-11-23T02:16:19.121Z,78.87
2023-11-23T02:17:22.870Z,78.64
2023-11-23T02:18:26.609Z,78.59
2023-11-23T02:19:29.441Z,78.65
2023-11-23T02:20:32.924Z,78.69
2023-11-23T02:21:36.324Z,78.84
2023-11-23T02:22:39.506Z,78.40
2023-11-23T02:23:42.298Z,78.56
2023-11-23T02:24:45.519Z,77.81
2023-11-23T02:25:48.284Z,78.23
2023-11-23T02:26:51.029Z,78.73
2023-11-23T02:27:54.304Z,79.05
2023-11-23T02:28:57.032Z,79.48
2023-11-23T02:29:59.839Z,79.04
2023-11-23T02:31:03.581Z,79.02
2023-11-23T02:32:07.405Z,79.08
2023-11-23T02:33:10.666Z,78.81
2023-11-23T02:34:13.460Z,78.88
2023-11-23T02:35:16.210Z,78.58
2023-11-23T02:36:19.267Z,79.01
2023-11-23T02:37:22.040Z,79.15
2023-11-23T02:38:24.790Z,79.08
2023-11-23T02:39:27.823Z,79.55
2023-11-23T02:40:30.566Z,79.55
2023-11-23T02:41:33.307Z,79.55
2023-11-23T02:42:36.203Z,79.47
2023-11-23T02:43:38.931Z,79.96
2023-11-23T02:44:41.691Z,79.71
2023-11-23T02:45:44.666Z,79.80
2023-11-23T02:46:47.471Z,79.71
2023-11-23T02:47:50.837Z,79.53
2023-11-23T02:48:53.790Z,79.71
2023-11-23T02:49:56.571Z,79.80
2023-11-23T02:50:59.405Z,79.43
2023-11-23T02:52:02.712Z,80.04
2023-11-23T02:53:06.115Z,79.99
2023-11-23T02:54:08.927Z,80.59
2023-11-23T02:55:12.600Z,80.39
2023-11-23T02:56:16.652Z,80.22
2023-11-23T02:57:19.450Z,80.21
2023-11-23T02:58:23.058Z,80.31
2023-11-23T02:59:25.797Z,80.13
2023-11-23T03:00:28.562Z,80.69
2023-11-23T03:01:33.494Z,80.91
2023-11-23T03:02:36.402Z,80.67
2023-11-23T03:03:39.900Z,80.22
2023-11-23T03:04:43.019Z,80.45
2023-11-23T03:05:45.840Z,80.63
2023-11-23T03:06:48.696Z,80.43
2023-11-23T03:07:51.445Z,80.23
2023-11-23T03:08:54.646Z,80.50
2023-11-23T03:09:57.397Z,80.74
2023-11-23T03:11:00.216Z,80.70
2023-11-23T03:12:03.070Z,80.49
2023-11-23T03:13:07.357Z,80.69
2023-11-23T03:14:10.090Z,81.09
2023-11-23T03:15:12.950Z,81.42
2023-11-23T03:16:15.904Z,81.43
2023-11-23T03:17:20.314Z,81.48
2023-11-23T03:18:23.265Z,81.36
2023-11-23T03:19:26.073Z,81.14
2023-11-23T03:20:28.836Z,81.29
2023-11-23T03:21:31.663Z,81.06
2023-11-23T03:22:34.449Z,80.87
2023-11-23T03:23:37.401Z,81.15
2023-11-23T03:24:40.500Z,80.64
2023-11-23T03:25:43.247Z,80.61
2023-11-23T03:26:46.774Z,80.11
2023-11-23T03:27:49.583Z,80.30
2023-11-23T03:28:52.425Z,79.75
2023-11-23T03:29:55.276Z,79.91
2023-11-23T03:30:58.255Z,79.55
2023-11-23T03:32:00.969Z,79.42
2023-11-23T03:33:04.042Z,79.68
2023-11-23T03:34:07.159Z,79.23
2023-11-23T03:35:10.994Z,79.30
2023-11-23T03:36:13.786Z,79.09
2023-11-23T03:37:17.247Z,79.23
2023-11-23T03:38:19.991Z,78.80
2023-11-23T03:39:22.920Z,78.77
2023-11-23T03:40:25.695Z,78.47
2023-11-23T03:41:28.420Z,78.72
2023-11-23T03:42:31.170Z,78.04
2023-11-23T03:43:33.910Z,78.12
2023-11-23T03:44:36.654Z,78.03
2023-11-23T03:45:39.443Z,78.07
2023-11-23T03:46:42.177Z,78.04
2023-11-23T03:47:44.978Z,77.85
2023-11-23T03:48:47.803Z,78.11
2023-11-23T03:49:52.003Z,77.69
2023-11-23T03:50:54.788Z,77.96
2023-11-23T03:51:58.637Z,77.80
2023-11-23T03:53:01.740Z,77.77
2023-11-23T03:54:04.720Z,77.97
2023-11-23T03:55:07.918Z,77.81
2023-11-23T03:56:16.637Z,78.60
2023-11-23T03:57:20.174Z,78.68
2023-11-23T03:58:22.939Z,78.53
2023-11-23T03:59:25.955Z,78.59
2023-11-23T04:00:29.208Z,78.51
2023-11-23T04:01:32.677Z,78.88
2023-11-23T04:02:35.496Z,78.75
2023-11-23T04:03:42.193Z,78.71
2023-11-23T04:04:44.945Z,79.02
2023-11-23T04:05:47.816Z,79.30
2023-11-23T04:06:50.588Z,78.71
2023-11-23T04:07:53.334Z,78.76
2023-11-23T04:08:56.149Z,78.61
2023-11-23T04:09:59.258Z,78.41
2023-11-23T04:11:01.988Z,78.64
2023-11-23T04:12:05.593Z,78.78
2023-11-23T04:13:08.433Z,78.72
2023-11-23T04:14:11.296Z,78.77
2023-11-23T04:15:14.161Z,79.08
2023-11-23T04:16:17.051Z,78.89
2023-11-23T04:17:19.816Z,79.19
2023-11-23T04:18:22.620Z,79.05
2023-11-23T04:19:25.399Z,79.08
2023-11-23T04:20:30.837Z,79.44
2023-11-23T04:21:34.370Z,79.20
2023-11-23T04:22:37.606Z,79.43
2023-11-23T04:23:40.921Z,79.50
2023-11-23T04:24:43.651Z,79.71
2023-11-23T04:25:46.444Z,79.88
2023-11-23T04:26:49.213Z,79.66
2023-11-23T04:27:51.979Z,79.83
2023-11-23T04:28:54.929Z,80.02
2023-11-23T04:29:57.689Z,80.00
2023-11-23T04:31:00.437Z,80.18
2023-11-23T04:32:03.258Z,80.60
2023-11-23T04:33:06.069Z,80.41
2023-11-23T04:34:08.973Z,80.42
2023-11-23T04:35:12.342Z,80.41
2023-11-23T04:36:15.115Z,80.36
2023-11-23T04:37:18.781Z,80.47
2023-11-23T04:38:21.511Z,80.10
2023-11-23T04:39:24.283Z,80.70
2023-11-23T04:40:27.049Z,80.57
2023-11-23T04:41:29.773Z,80.59
2023-11-23T04:42:32.532Z,80.67
2023-11-23T04:43:35.351Z,80.50
2023-11-23T04:44:38.151Z,80.46
2023-11-23T04:45:42.305Z,80.38
2023-11-23T04:46:45.175Z,80.40
2023-11-23T04:47:48.054Z,80.31
2023-11-23T04:48:50.835Z,80.67
2023-11-23T04:49:54.133Z,80.73
2023-11-23T04:50:56.961Z,80.71
2023-11-23T04:51:59.731Z,81.14
2023-11-23T04:53:02.700Z,81.14
2023-11-23T04:54:05.818Z,81.07
2023-11-23T04:55:08.927Z,81.17
2023-11-23T04:56:12.366Z,81.11
2023-11-23T04:57:15.220Z,80.88
2023-11-23T04:58:17.974Z,80.89
2023-11-23T04:59:21.756Z,80.88
2023-11-23T05:00:26.702Z,81.00
2023-11-23T05:01:29.895Z,80.57
2023-11-23T05:02:51.374Z,80.89
2023-11-23T05:03:54.581Z,81.20
2023-11-23T05:04:57.411Z,80.95
2023-11-23T05:06:00.291Z,80.97
2023-11-23T05:07:03.081Z,80.55
2023-11-23T05:08:05.816Z,80.73
2023-11-23T05:09:08.568Z,80.41
2023-11-23T05:10:11.394Z,80.77
2023-11-23T05:11:14.153Z,80.99
2023-11-23T05:12:18.773Z,80.98
2023-11-23T05:13:21.555Z,80.90
2023-11-23T05:14:24.399Z,80.94
2023-11-23T05:15:27.251Z,81.05
2023-11-23T05:16:30.039Z,80.92
2023-11-23T05:17:33.058Z,80.73
2023-11-23T05:18:35.976Z,80.88
2023-11-23T05:19:42.829Z,81.37
2023-11-23T05:20:46.138Z,81.26
2023-11-23T05:21:49.059Z,80.89
2023-11-23T05:22:52.399Z,80.94
2023-11-23T05:23:55.165Z,81.01
2023-11-23T05:24:57.922Z,80.97
2023-11-23T05:26:00.780Z,81.56
2023-11-23T05:27:03.569Z,81.47
2023-11-23T05:28:07.393Z,81.45
2023-11-23T05:29:10.174Z,81.35
2023-11-23T05:30:13.245Z,81.61
2023-11-23T05:31:16.197Z,81.50
2023-11-23T05:32:19.671Z,81.74
2023-11-23T05:33:25.511Z,81.42
2023-11-23T05:34:28.593Z,81.63
2023-11-23T05:35:32.238Z,81.46
2023-11-23T05:36:34.973Z,81.32
2023-11-23T05:37:37.722Z,81.10
2023-11-23T05:38:40.461Z,80.92
2023-11-23T05:39:44.497Z,80.96
2023-11-23T05:40:47.630Z,81.01
2023-11-23T05:41:50.666Z,80.89
2023-11-23T05:42:58.265Z,80.95
2023-11-23T05:44:07.544Z,80.77
2023-11-23T05:45:10.587Z,80.92
2023-11-23T05:46:14.853Z,80.62
2023-11-23T05:47:17.925Z,80.94
2023-11-23T05:48:20.748Z,80.60
2023-11-23T05:49:23.720Z,80.97
2023-11-23T05:50:26.463Z,81.01
2023-11-23T05:51:32.336Z,81.08
2023-11-23T05:52:35.525Z,80.82
2023-11-23T05:53:38.288Z,80.79
2023-11-23T05:54:41.036Z,80.94
2023-11-23T05:55:43.791Z,81.33
2023-11-23T05:56:47.084Z,81.11
2023-11-23T05:57:49.894Z,80.88
2023-11-23T05:58:52.640Z,80.97
2023-11-23T05:59:55.932Z,81.17
2023-11-23T06:01:07.188Z,81.23
2023-11-23T06:02:12.915Z,81.07
2023-11-23T06:03:15.808Z,80.90
2023-11-23T06:04:18.758Z,81.00
2023-11-23T06:05:21.752Z,81.03
2023-11-23T06:06:24.938Z,80.91
2023-11-23T06:07:27.686Z,81.16
2023-11-23T06:08:30.455Z,81.21
2023-11-23T06:09:33.396Z,81.27
2023-11-23T06:10:36.137Z,81.41
2023-11-23T06:11:38.887Z,81.09
2023-11-23T06:12:42.180Z,80.86
2023-11-23T06:13:47.120Z,81.09
2023-11-23T06:14:49.946Z,80.88
2023-11-23T06:15:52.765Z,81.19
2023-11-23T06:16:55.525Z,80.52
2023-11-23T06:18:07.591Z,80.48
2023-11-23T06:19:17.141Z,80.76
2023-11-23T06:20:20.082Z,80.74
2023-11-23T06:21:22.973Z,80.56
2023-11-23T06:22:25.782Z,80.58
2023-11-23T06:23:29.854Z,80.61
2023-11-23T06:24:32.624Z,80.59
2023-11-23T06:25:35.362Z,80.74
2023-11-23T06:26:38.110Z,80.32
2023-11-23T06:27:40.857Z,80.30
2023-11-23T06:28:43.957Z,80.65
2023-11-23T06:29:46.774Z,80.37
2023-11-23T06:30:49.509Z,80.02
2023-11-23T06:31:52.424Z,80.46
2023-11-23T06:32:55.233Z,80.01
2023-11-23T06:33:58.311Z,80.62
2023-11-23T06:35:01.083Z,79.93
2023-11-23T06:36:04.087Z,80.03
2023-11-23T06:37:06.855Z,80.02
2023-11-23T06:38:09.805Z,79.88
2023-11-23T06:39:12.619Z,79.80
2023-11-23T06:40:15.609Z,80.06
2023-11-23T06:41:27.045Z,79.92
2023-11-23T06:42:29.836Z,79.46
2023-11-23T06:43:32.617Z,79.45
2023-11-23T06:44:35.355Z,79.42
2023-11-23T06:45:38.601Z,79.26
2023-11-23T06:46:41.359Z,79.30
2023-11-23T06:47:44.306Z,79.18
2023-11-23T06:48:47.543Z,79.44
2023-11-23T06:49:50.545Z,81.67
2023-11-23T06:50:53.288Z,80.13
2023-11-23T06:51:56.376Z,79.40
2023-11-23T06:52:59.218Z,79.20
2023-11-23T06:54:02.019Z,82.71
2023-11-23T06:55:06.890Z,80.32
2023-11-23T06:56:13.836Z,79.24
2023-11-23T06:57:16.657Z,79.31
2023-11-23T06:58:19.400Z,79.16
2023-11-23T06:59:22.471Z,79.04
2023-11-23T07:00:25.471Z,79.18
2023-11-23T07:01:28.402Z,79.19
2023-11-23T07:02:31.301Z,79.26
2023-11-23T07:03:34.950Z,79.10
2023-11-23T07:04:38.576Z,79.38
2023-11-23T07:05:41.374Z,79.49
2023-11-23T07:06:44.097Z,79.19
2023-11-23T07:07:49.755Z,79.22
2023-11-23T07:08:52.666Z,78.88
2023-11-23T07:09:55.933Z,78.59
2023-11-23T07:10:58.788Z,78.28
2023-11-23T07:12:01.595Z,78.67
2023-11-23T07:13:04.496Z,78.59
2023-11-23T07:14:07.609Z,78.82
2023-11-23T07:15:11.356Z,78.97
2023-11-23T07:16:14.351Z,78.48
2023-11-23T07:17:17.147Z,78.24
2023-11-23T07:18:20.332Z,76.89
2023-11-23T07:19:23.760Z,77.18
2023-11-23T07:20:29.671Z,76.23
2023-11-23T07:21:32.487Z,76.37
2023-11-23T07:22:35.301Z,75.22
2023-11-23T07:23:38.063Z,74.59
2023-11-23T07:24:41.640Z,74.09
2023-11-23T07:25:45.413Z,74.13
2023-11-23T07:26:48.805Z,73.02
2023-11-23T07:27:51.622Z,73.32
2023-11-23T07:28:54.784Z,73.43
2023-11-23T07:29:57.532Z,73.07
2023-11-23T07:31:02.424Z,71.80
2023-11-23T07:32:05.780Z,72.66
2023-11-23T07:33:11.489Z,72.84
2023-11-23T07:34:14.255Z,72.46
2023-11-23T07:35:17.008Z,71.69
2023-11-23T07:36:19.947Z,71.15
2023-11-23T07:37:22.755Z,71.13
2023-11-23T07:38:25.498Z,70.60
2023-11-23T07:39:28.249Z,70.11
2023-11-23T07:40:31.993Z,70.11
2023-11-23T07:41:34.944Z,69.39
2023-11-23T07:42:38.270Z,68.24
2023-11-23T07:43:41.280Z,67.42
2023-11-23T07:44:44.927Z,66.88
2023-11-23T07:45:47.650Z,66.13
2023-11-23T07:46:50.425Z,65.53
2023-11-23T07:47:53.400Z,65.81
2023-11-23T07:48:56.279Z,66.28
2023-11-23T07:50:00.873Z,66.61
2023-11-23T07:51:03.652Z,65.87
2023-11-23T07:52:06.434Z,66.13
2023-11-23T07:53:09.270Z,65.77
2023-11-23T07:54:12.013Z,65.65
2023-11-23T07:55:18.972Z,65.32
2023-11-23T07:56:22.328Z,66.14
2023-11-23T07:57:25.153Z,65.96
2023-11-23T07:58:27.965Z,66.63
2023-11-23T07:59:31.092Z,67.55
2023-11-23T08:00:38.623Z,67.51
2023-11-23T08:01:41.493Z,67.71
2023-11-23T08:02:44.305Z,68.53
2023-11-23T08:03:47.813Z,68.46
2023-11-23T08:04:51.164Z,68.96
2023-11-23T08:05:54.457Z,67.94
2023-11-23T08:06:57.203Z,66.93
2023-11-23T08:07:59.950Z,67.92
2023-11-23T08:09:02.729Z,67.65
2023-11-23T08:10:13.922Z,68.48
2023-11-23T08:11:16.797Z,68.35
2023-11-23T08:12:19.887Z,68.27
2023-11-23T08:13:22.712Z,68.20
2023-11-23T08:14:25.454Z,67.61
2023-11-23T08:15:29.946Z,66.13
2023-11-23T08:16:33.881Z,66.91
2023-11-23T08:17:37.614Z,64.56
2023-11-23T08:18:47.326Z,63.36
2023-11-23T08:19:52.921Z,63.81
2023-11-23T08:20:55.830Z,62.40
2023-11-23T08:21:58.803Z,61.27
2023-11-23T08:23:01.553Z,60.01
2023-11-23T08:24:04.507Z,60.06
2023-11-23T08:25:07.482Z,59.61
2023-11-23T08:26:12.215Z,59.41
2023-11-23T08:27:15.263Z,59.33
2023-11-23T08:28:18.054Z,60.04
2023-11-23T08:29:21.997Z,59.32
2023-11-23T08:30:24.906Z,61.01
2023-11-23T08:31:29.573Z,60.83
2023-11-23T08:32:32.390Z,59.92
2023-11-23T08:33:35.160Z,58.84
2023-11-23T08:34:39.534Z,60.09
2023-11-23T08:35:44.014Z,60.75
2023-11-23T08:36:47.587Z,61.37
2023-11-23T08:37:50.439Z,59.91
2023-11-23T08:38:53.253Z,59.19
2023-11-23T08:39:57.225Z,59.15
2023-11-23T08:41:01.731Z,59.08
2023-11-23T08:42:04.874Z,58.37
2023-11-23T08:43:09.647Z,57.53
2023-11-23T08:44:12.393Z,57.45
2023-11-23T08:45:15.210Z,57.41
2023-11-23T08:46:18.544Z,56.32
2023-11-23T08:47:21.369Z,54.61
2023-11-23T08:48:24.255Z,54.82
2023-11-23T08:49:27.734Z,53.20
2023-11-23T08:50:30.474Z,52.78
2023-11-23T08:51:33.277Z,52.10
2023-11-23T08:52:36.076Z,52.03
2023-11-23T08:53:38.822Z,52.10
2023-11-23T08:54:41.583Z,52.14
2023-11-23T08:55:46.339Z,52.43
2023-11-23T08:56:49.064Z,51.46
2023-11-23T08:57:54.882Z,52.59
2023-11-23T08:58:57.678Z,51.61
2023-11-23T09:00:02.413Z,52.23
2023-11-23T09:01:06.278Z,53.16
2023-11-23T09:02:17.473Z,53.50
2023-11-23T09:03:23.847Z,54.96
2023-11-23T09:04:33.479Z,55.50
2023-11-23T09:05:43.493Z,55.43
2023-11-23T09:06:46.466Z,55.36
2023-11-23T09:07:51.978Z,54.76
2023-11-23T09:08:55.746Z,54.29
2023-11-23T09:09:58.533Z,55.78
2023-11-23T09:11:01.257Z,54.75
2023-11-23T09:12:04.032Z,55.14
2023-11-23T09:13:06.784Z,56.72
2023-11-23T09:14:10.368Z,55.96
2023-11-23T09:15:14.552Z,56.77
2023-11-23T09:16:17.526Z,57.15
2023-11-23T09:17:20.542Z,57.21
2023-11-23T09:18:23.752Z,55.93
2023-11-23T09:19:26.704Z,55.69
2023-11-23T09:20:29.445Z,55.96
2023-11-23T09:21:32.214Z,57.22
2023-11-23T09:22:36.895Z,57.31
2023-11-23T09:23:39.657Z,58.77
2023-11-23T09:24:42.884Z,57.40
2023-11-23T09:25:45.746Z,57.92
2023-11-23T09:26:48.668Z,58.59
2023-11-23T09:27:51.473Z,58.03
2023-11-23T09:28:54.193Z,59.55
2023-11-23T09:29:57.722Z,60.74
2023-11-23T09:31:00.498Z,60.75
2023-11-23T09:32:04.484Z,61.19
2023-11-23T09:33:11.071Z,61.67
2023-11-23T09:34:14.431Z,62.92
2023-11-23T09:35:17.178Z,62.39
2023-11-23T09:36:20.243Z,63.46
2023-11-23T09:37:23.725Z,63.25
2023-11-23T09:38:26.461Z,63.40
2023-11-23T09:39:29.373Z,62.87
2023-11-23T09:40:32.761Z,63.00
2023-11-23T09:41:41.609Z,63.09
2023-11-23T09:42:44.675Z,63.61
2023-11-23T09:43:51.443Z,64.85
2023-11-23T09:44:58.517Z,64.30
2023-11-23T09:46:03.058Z,63.99
2023-11-23T09:47:07.423Z,63.95
2023-11-23T09:48:12.454Z,65.26
2023-11-23T09:49:16.696Z,65.58
2023-11-23T09:50:20.272Z,66.09
2023-11-23T09:51:24.150Z,66.21
2023-11-23T09:52:29.342Z,66.59
2023-11-23T09:53:33.338Z,67.24
2023-11-23T09:54:36.924Z,66.87
2023-11-23T09:55:39.719Z,67.99
2023-11-23T09:56:42.470Z,68.20
2023-11-23T09:57:46.240Z,68.32
2023-11-23T09:58:49.180Z,67.15
2023-11-23T09:59:51.965Z,67.00
2023-11-23T10:00:54.754Z,67.95
2023-11-23T10:02:05.753Z,67.23
2023-11-23T10:03:09.528Z,67.53
2023-11-23T10:04:13.162Z,67.43
2023-11-23T10:05:17.705Z,67.78
2023-11-23T10:06:20.873Z,67.76
2023-11-23T10:07:25.129Z,68.60
2023-11-23T10:08:29.015Z,69.57
2023-11-23T10:09:34.816Z,69.94
2023-11-23T10:10:39.704Z,70.26
2023-11-23T10:11:42.455Z,69.78
2023-11-23T10:12:46.966Z,69.47
2023-11-23T10:13:49.746Z,69.47
2023-11-23T10:14:55.284Z,69.53
2023-11-23T10:15:58.074Z,69.55
2023-11-23T10:17:00.897Z,68.79
2023-11-23T10:18:03.754Z,69.26
2023-11-23T10:19:06.612Z,69.64
2023-11-23T10:20:13.647Z,69.60
2023-11-23T10:21:16.614Z,69.48
2023-11-23T10:22:19.439Z,69.69
2023-11-23T10:23:22.572Z,69.71
2023-11-23T10:24:25.525Z,68.92
2023-11-23T10:25:33.559Z,68.88
2023-11-23T10:26:36.558Z,68.56
2023-11-23T10:27:39.318Z,68.03
2023-11-23T10:28:42.490Z,68.92
2023-11-23T10:29:45.310Z,67.25
2023-11-23T10:30:48.629Z,66.72
2023-11-23T10:31:52.152Z,67.39
2023-11-23T10:32:56.409Z,68.14
2023-11-23T10:34:00.560Z,67.81
2023-11-23T10:35:10.951Z,67.70
2023-11-23T10:36:15.477Z,66.43
2023-11-23T10:37:18.456Z,66.89
2023-11-23T10:38:35.425Z,67.56
2023-11-23T10:39:45.895Z,67.76
2023-11-23T10:40:49.100Z,66.69
2023-11-23T10:41:54.635Z,66.44
2023-11-23T10:43:01.951Z,66.10
2023-11-23T10:44:05.052Z,66.25
2023-11-23T10:45:09.376Z,67.00
2023-11-23T10:46:12.917Z,66.34
2023-11-23T10:47:17.969Z,66.28
2023-11-23T10:48:25.468Z,65.99
2023-11-23T10:49:28.742Z,65.74
2023-11-23T10:50:33.733Z,66.81
2023-11-23T10:51:36.827Z,65.91
2023-11-23T10:52:43.215Z,66.09
2023-11-23T10:53:46.009Z,66.16
2023-11-23T10:54:49.240Z,66.13
2023-11-23T10:55:52.850Z,66.11
2023-11-23T10:57:00.528Z,65.03
2023-11-23T10:58:09.037Z,66.26
2023-11-23T10:59:21.551Z,65.01
2023-11-23T11:00:28.812Z,65.09
2023-11-23T11:01:32.620Z,65.21
2023-11-23T11:02:35.672Z,66.08
2023-11-23T11:03:40.236Z,66.94
2023-11-23T11:04:43.355Z,66.39
2023-11-23T11:05:51.031Z,66.05
2023-11-23T11:06:56.939Z,64.88
2023-11-23T11:08:08.584Z,65.42
2023-11-23T11:09:18.157Z,64.97
2023-11-23T11:10:20.907Z,65.30
2023-11-23T11:11:25.935Z,65.91
2023-11-23T11:12:38.063Z,66.27
2023-11-23T11:13:44.207Z,65.74
2023-11-23T11:14:55.176Z,65.66
2023-11-23T11:16:01.060Z,65.56
2023-11-23T11:17:06.089Z,67.14
2023-11-23T11:18:11.197Z,67.25
2023-11-23T11:19:15.166Z,66.73
2023-11-23T11:20:23.480Z,66.47
2023-11-23T11:21:27.819Z,65.40
2023-11-23T11:22:32.082Z,65.94
2023-11-23T11:23:53.833Z,65.80
2023-11-23T11:24:59.740Z,66.67
2023-11-23T11:26:28.792Z,65.77
2023-11-23T11:27:35.263Z,64.55
2023-11-23T11:28:41.885Z,65.46
2023-11-23T11:29:52.086Z,65.94
2023-11-23T11:31:05.393Z,65.81
2023-11-23T11:32:09.260Z,65.32
2023-11-23T11:33:15.819Z,66.01
2023-11-23T11:34:21.333Z,65.91
2023-11-23T11:35:27.461Z,65.72
2023-11-23T11:36:32.244Z,65.40
2023-11-23T11:37:35.627Z,64.54
2023-11-23T11:38:40.560Z,65.51
2023-11-23T11:39:45.631Z,64.51
2023-11-23T11:40:50.405Z,64.34
2023-11-23T11:42:00.614Z,65.38
2023-11-23T11:43:09.377Z,66.77
2023-11-23T11:44:14.379Z,66.90
2023-11-23T11:45:18.813Z,65.71
2023-11-23T11:46:22.239Z,66.37
2023-11-23T11:47:27.375Z,66.38
2023-11-23T11:48:30.591Z,66.15
2023-11-23T11:49:33.571Z,65.06
2023-11-23T11:50:36.372Z,66.00
2023-11-23T11:51:39.190Z,66.70
2023-11-23T11:52:42.014Z,66.66
2023-11-23T11:53:45.403Z,67.13
2023-11-23T11:54:48.661Z,66.46
2023-11-23T11:55:54.239Z,66.42
2023-11-23T11:56:56.986Z,67.09
2023-11-23T11:57:59.868Z,66.65
2023-11-23T11:59:05.161Z,66.38
2023-11-23T12:00:08.877Z,66.32
2023-11-23T12:01:14.707Z,65.66
2023-11-23T12:02:17.538Z,65.92
2023-11-23T12:03:21.183Z,65.73
2023-11-23T12:04:25.236Z,66.42
2023-11-23T12:05:29.331Z,65.66
2023-11-23T12:06:32.809Z,66.82
2023-11-23T12:07:35.583Z,66.79
2023-11-23T12:08:38.884Z,66.68
2023-11-23T12:09:46.473Z,67.00
2023-11-23T12:10:50.053Z,67.09
2023-11-23T12:12:06.455Z,67.33
2023-11-23T12:13:16.119Z,66.19
2023-11-23T12:14:20.268Z,66.09
2023-11-23T12:15:23.055Z,66.42
2023-11-23T12:16:36.497Z,66.80
2023-11-23T12:17:48.992Z,66.37
2023-11-23T12:18:51.763Z,67.63
2023-11-23T12:19:57.105Z,65.91
2023-11-23T12:21:00.428Z,66.34
2023-11-23T12:22:04.145Z,66.63
2023-11-23T12:23:09.119Z,67.02
2023-11-23T12:24:18.642Z,66.59
2023-11-23T12:25:21.975Z,66.76
2023-11-23T12:26:25.813Z,66.84
2023-11-23T12:27:28.687Z,66.38
2023-11-23T12:28:32.272Z,66.56
2023-11-23T12:29:35.220Z,65.80
2023-11-23T12:30:38.132Z,66.70
2023-11-23T12:31:41.106Z,66.65
2023-11-23T12:32:43.904Z,65.00
2023-11-23T12:33:46.756Z,65.29
2023-11-23T12:34:49.602Z,65.52
2023-11-23T12:35:52.464Z,66.30
2023-11-23T12:36:59.413Z,66.89
2023-11-23T12:38:02.258Z,67.14
2023-11-23T12:39:05.499Z,69.96
2023-11-23T12:40:11.571Z,67.16
2023-11-23T12:41:14.336Z,66.93
2023-11-23T12:42:17.630Z,66.45
2023-11-23T12:43:23.697Z,65.67
2023-11-23T12:44:26.613Z,65.67
2023-11-23T12:45:29.743Z,65.58
2023-11-23T12:46:32.992Z,66.44
2023-11-23T12:47:38.867Z,65.67
2023-11-23T12:48:41.753Z,65.72
2023-11-23T12:49:44.821Z,65.46
2023-11-23T12:50:49.815Z,64.75
2023-11-23T12:51:53.612Z,65.48
2023-11-23T12:52:56.394Z,65.08
2023-11-23T12:53:59.224Z,64.37
2023-11-23T12:55:02.695Z,64.83
2023-11-23T12:56:05.852Z,64.53
2023-11-23T12:57:10.522Z,65.30
2023-11-23T12:58:14.878Z,65.64
2023-11-23T12:59:18.186Z,65.03
2023-11-23T13:00:23.026Z,66.02
2023-11-23T13:01:25.890Z,64.80
2023-11-23T13:02:28.874Z,65.73
2023-11-23T13:03:31.743Z,65.73
2023-11-23T13:04:36.050Z,64.79
2023-11-23T13:05:39.302Z,64.96
2023-11-23T13:06:43.160Z,65.77
2023-11-23T13:07:46.226Z,65.38
2023-11-23T13:08:49.418Z,65.02
2023-11-23T13:09:52.755Z,64.98
2023-11-23T13:10:55.543Z,64.95
2023-11-23T13:11:59.617Z,64.30
2023-11-23T13:13:02.712Z,64.14
2023-11-23T13:14:07.319Z,64.80
2023-11-23T13:15:13.512Z,63.79
2023-11-23T13:16:18.862Z,63.49
2023-11-23T13:17:21.733Z,63.74
2023-11-23T13:18:38.410Z,63.32
2023-11-23T13:19:49.424Z,64.73
2023-11-23T13:20:52.382Z,65.28
2023-11-23T13:21:55.286Z,64.67
2023-11-23T13:23:00.502Z,63.92
2023-11-23T13:24:05.760Z,64.56
2023-11-23T13:25:12.856Z,64.72
2023-11-23T13:26:15.831Z,64.28
2023-11-23T13:27:18.571Z,63.72
2023-11-23T13:28:22.082Z,63.43
2023-11-23T13:29:24.946Z,63.97
2023-11-23T13:30:32.126Z,63.39
2023-11-23T13:31:36.354Z,63.92
2023-11-23T13:32:41.575Z,64.00
2023-11-23T13:33:45.436Z,63.87
2023-11-23T13:34:50.653Z,63.56
2023-11-23T13:35:54.165Z,63.75
2023-11-23T13:36:56.915Z,64.18
2023-11-23T13:37:59.668Z,63.34
2023-11-23T13:39:03.688Z,64.22
2023-11-23T13:40:08.541Z,64.15
2023-11-23T13:41:11.514Z,63.36
2023-11-23T13:42:15.913Z,63.73